aviador You're here:

KAUO Decoded Metar

AUBURN OPELIKA A in AL, USA
Report Time2017-07-24 20:32:00
UTC Time2017-07-24 20:46:43
Flight Rules vfr VFR
Wind220° at 13 Gusting to 18 kt
W.Decomp.*RWY 18: 9.4 kt HW 9.0 kt RCW
RWY 29: 5.3 kt HW 11.9 kt LCW
W.Rank220° ranks 34
Current wind is above 220° avg. (6.7)
Visibility9999 m
Phenomena:N/A
Clouds:Scattered 036 Hf
Expected CloudBase > 3,200 ft AGL from Temp-Dew spread
CeilingNone
Temp31°C (ISA +18)
Dew Point23°C (62% RH)
Heat Index35.4°C
QNH1015 hPa
Density Alt3,084 ft
Elevation774 ft
Report Wrong Elevation
Raw Report
KAUO 242032Z AUTO 22013G18KT 10SM SCT036 31/23 A2998 RMK AO2
TSB01E26=

Extra information for KAUO:More info

Metar Taf Metar & Taf Last 4 Metars F.Rules Stats Wind Profile Meteogram Temp Stats Airport Information Weather charts Add Link Nearby VenuesMetar ALERT Operation Metar Decoded Social comments

AIRNAV info for KAUO